sensor_id;sensor_type;location;lat;lon;timestamp;P1;durP1;ratioP1;P2;durP2;ratioP2
8435;SDS011;4255;48.730;9.156;2022-12-10T00:01:12;53.47;;;29.97;;
8435;SDS011;4255;48.730;9.156;2022-12-10T00:03:42;49.97;;;29.63;;
8435;SDS011;4255;48.730;9.156;2022-12-10T00:06:10;54.15;;;28.25;;
8435;SDS011;4255;48.730;9.156;2022-12-10T00:08:38;57.97;;;32.30;;
8435;SDS011;4255;48.730;9.156;2022-12-10T00:11:05;58.15;;;32.25;;
8435;SDS011;4255;48.730;9.156;2022-12-10T00:13:32;61.67;;;32.40;;
8435;SDS011;4255;48.730;9.156;2022-12-10T00:15:59;63.08;;;31.55;;
8435;SDS011;4255;48.730;9.156;2022-12-10T00:18:26;55.35;;;31.00;;
8435;SDS011;4255;48.730;9.156;2022-12-10T00:20:51;52.80;;;28.60;;
8435;SDS011;4255;48.730;9.156;2022-12-10T00:23:17;52.80;;;29.27;;
8435;SDS011;4255;48.730;9.156;2022-12-10T00:25:43;55.73;;;29.47;;
8435;SDS011;4255;48.730;9.156;2022-12-10T00:28:08;53.80;;;28.07;;
8435;SDS011;4255;48.730;9.156;2022-12-10T00:30:34;58.33;;;27.97;;
8435;SDS011;4255;48.730;9.156;2022-12-10T00:33:00;49.33;;;28.50;;
8435;SDS011;4255;48.730;9.156;2022-12-10T00:35:26;55.27;;;30.83;;
8435;SDS011;4255;48.730;9.156;2022-12-10T00:37:51;49.97;;;27.87;;
8435;SDS011;4255;48.730;9.156;2022-12-10T00:40:17;51.20;;;28.93;;
8435;SDS011;4255;48.730;9.156;2022-12-10T00:42:42;48.33;;;28.63;;
8435;SDS011;4255;48.730;9.156;2022-12-10T00:45:08;55.57;;;28.73;;
8435;SDS011;4255;48.730;9.156;2022-12-10T00:47:34;52.25;;;29.85;;
8435;SDS011;4255;48.730;9.156;2022-12-10T00:50:00;53.27;;;30.47;;
8435;SDS011;4255;48.730;9.156;2022-12-10T00:52:25;58.63;;;31.13;;
8435;SDS011;4255;48.730;9.156;2022-12-10T00:54:51;60.17;;;32.10;;
8435;SDS011;4255;48.730;9.156;2022-12-10T00:57:16;46.40;;;28.13;;
8435;SDS011;4255;48.730;9.156;2022-12-10T00:59:42;55.27;;;30.27;;
8435;SDS011;4255;48.730;9.156;2022-12-10T01:02:07;53.30;;;29.90;;
8435;SDS011;4255;48.730;9.156;2022-12-10T01:04:33;53.37;;;30.40;;
8435;SDS011;4255;48.730;9.156;2022-12-10T01:06:59;58.93;;;32.70;;
8435;SDS011;4255;48.730;9.156;2022-12-10T01:09:28;53.73;;;32.13;;
8435;SDS011;4255;48.730;9.156;2022-12-10T01:11:56;52.53;;;29.95;;
8435;SDS011;4255;48.730;9.156;2022-12-10T01:14:29;60.70;;;33.63;;
8435;SDS011;4255;48.730;9.156;2022-12-10T01:16:57;59.35;;;32.25;;
8435;SDS011;4255;48.730;9.156;2022-12-10T01:19:25;56.50;;;32.03;;
8435;SDS011;4255;48.730;9.156;2022-12-10T01:21:51;56.17;;;31.37;;
8435;SDS011;4255;48.730;9.156;2022-12-10T01:24:21;56.47;;;30.80;;
8435;SDS011;4255;48.730;9.156;2022-12-10T01:26:47;51.45;;;30.58;;
8435;SDS011;4255;48.730;9.156;2022-12-10T01:29:13;57.87;;;31.20;;
8435;SDS011;4255;48.730;9.156;2022-12-10T01:31:39;62.77;;;30.20;;
8435;SDS011;4255;48.730;9.156;2022-12-10T01:34:05;52.50;;;30.87;;
8435;SDS011;4255;48.730;9.156;2022-12-10T01:36:34;59.35;;;30.67;;
8435;SDS011;4255;48.730;9.156;2022-12-10T01:39:02;49.47;;;30.80;;
8435;SDS011;4255;48.730;9.156;2022-12-10T01:41:31;44.78;;;27.13;;
8435;SDS011;4255;48.730;9.156;2022-12-10T01:44:01;57.25;;;33.25;;
8435;SDS011;4255;48.730;9.156;2022-12-10T01:46:39;53.30;;;28.75;;
8435;SDS011;4255;48.730;9.156;2022-12-10T01:49:12;51.13;;;28.50;;
8435;SDS011;4255;48.730;9.156;2022-12-10T01:51:50;58.13;;;30.45;;
8435;SDS011;4255;48.730;9.156;2022-12-10T01:54:22;51.50;;;26.38;;
8435;SDS011;4255;48.730;9.156;2022-12-10T01:56:54;45.90;;;27.27;;
8435;SDS011;4255;48.730;9.156;2022-12-10T01:59:43;49.25;;;27.35;;
8435;SDS011;4255;48.730;9.156;2022-12-10T02:10:05;47.38;;;28.63;;
8435;SDS011;4255;48.730;9.156;2022-12-10T02:13:16;52.72;;;28.17;;
8435;SDS011;4255;48.730;9.156;2022-12-10T02:15:47;46.70;;;28.10;;
8435;SDS011;4255;48.730;9.156;2022-12-10T02:18:27;52.08;;;27.67;;
8435;SDS011;4255;48.730;9.156;2022-12-10T02:21:04;45.30;;;27.23;;
8435;SDS011;4255;48.730;9.156;2022-12-10T02:23:45;52.28;;;28.40;;
8435;SDS011;4255;48.730;9.156;2022-12-10T02:29:12;50.95;;;30.45;;
8435;SDS011;4255;48.730;9.156;2022-12-10T02:31:48;48.25;;;27.40;;
8435;SDS011;4255;48.730;9.156;2022-12-10T02:34:39;46.03;;;27.58;;
8435;SDS011;4255;48.730;9.156;2022-12-10T02:37:10;54.95;;;27.83;;
8435;SDS011;4255;48.730;9.156;2022-12-10T02:39:44;52.85;;;29.88;;
8435;SDS011;4255;48.730;9.156;2022-12-10T02:42:13;49.83;;;28.70;;
8435;SDS011;4255;48.730;9.156;2022-12-10T02:44:40;54.13;;;29.17;;
8435;SDS011;4255;48.730;9.156;2022-12-10T02:47:08;53.00;;;30.00;;
8435;SDS011;4255;48.730;9.156;2022-12-10T02:49:35;59.78;;;30.13;;
8435;SDS011;4255;48.730;9.156;2022-12-10T02:52:07;52.22;;;28.88;;
8435;SDS011;4255;48.730;9.156;2022-12-10T02:57:14;52.90;;;28.42;;
8435;SDS011;4255;48.730;9.156;2022-12-10T02:59:59;51.03;;;29.13;;
8435;SDS011;4255;48.730;9.156;2022-12-10T03:02:46;49.40;;;25.88;;
8435;SDS011;4255;48.730;9.156;2022-12-10T03:05:43;49.95;;;27.83;;
8435;SDS011;4255;48.730;9.156;2022-12-10T03:08:12;52.38;;;30.38;;
8435;SDS011;4255;48.730;9.156;2022-12-10T03:10:55;49.58;;;26.67;;
8435;SDS011;4255;48.730;9.156;2022-12-10T03:13:29;49.47;;;28.67;;
8435;SDS011;4255;48.730;9.156;2022-12-10T03:16:00;55.95;;;28.85;;
8435;SDS011;4255;48.730;9.156;2022-12-10T03:18:26;49.08;;;27.92;;
8435;SDS011;4255;48.730;9.156;2022-12-10T03:20:56;49.20;;;28.90;;
8435;SDS011;4255;48.730;9.156;2022-12-10T03:23:24;55.28;;;29.63;;
8435;SDS011;4255;48.730;9.156;2022-12-10T03:25:53;53.88;;;29.15;;
8435;SDS011;4255;48.730;9.156;2022-12-10T03:28:19;49.33;;;27.58;;
8435;SDS011;4255;48.730;9.156;2022-12-10T03:30:46;53.25;;;30.20;;
8435;SDS011;4255;48.730;9.156;2022-12-10T03:33:14;61.85;;;28.92;;
8435;SDS011;4255;48.730;9.156;2022-12-10T03:35:40;52.25;;;29.40;;
8435;SDS011;4255;48.730;9.156;2022-12-10T03:38:06;57.58;;;28.83;;
8435;SDS011;4255;48.730;9.156;2022-12-10T03:40:33;50.03;;;26.95;;
8435;SDS011;4255;48.730;9.156;2022-12-10T03:42:59;66.63;;;31.53;;
8435;SDS011;4255;48.730;9.156;2022-12-10T03:45:24;47.07;;;28.90;;
8435;SDS011;4255;48.730;9.156;2022-12-10T03:47:50;51.10;;;28.03;;
8435;SDS011;4255;48.730;9.156;2022-12-10T03:50:15;55.63;;;30.37;;
8435;SDS011;4255;48.730;9.156;2022-12-10T03:52:41;46.87;;;27.77;;
8435;SDS011;4255;48.730;9.156;2022-12-10T03:55:07;42.40;;;24.53;;
8435;SDS011;4255;48.730;9.156;2022-12-10T03:57:34;55.33;;;28.35;;
8435;SDS011;4255;48.730;9.156;2022-12-10T04:00:00;43.13;;;24.70;;
8435;SDS011;4255;48.730;9.156;2022-12-10T04:02:26;49.80;;;27.55;;
8435;SDS011;4255;48.730;9.156;2022-12-10T04:04:52;51.10;;;28.13;;
8435;SDS011;4255;48.730;9.156;2022-12-10T04:07:17;56.30;;;28.10;;
8435;SDS011;4255;48.730;9.156;2022-12-10T04:09:43;60.13;;;28.97;;
8435;SDS011;4255;48.730;9.156;2022-12-10T04:12:08;46.53;;;27.60;;
8435;SDS011;4255;48.730;9.156;2022-12-10T04:14:35;43.13;;;27.67;;
8435;SDS011;4255;48.730;9.156;2022-12-10T04:17:19;46.75;;;27.48;;
8435;SDS011;4255;48.730;9.156;2022-12-10T04:19:45;48.87;;;27.13;;
8435;SDS011;4255;48.730;9.156;2022-12-10T04:22:10;53.00;;;27.83;;
8435;SDS011;4255;48.730;9.156;2022-12-10T04:24:54;52.05;;;27.98;;
8435;SDS011;4255;48.730;9.156;2022-12-10T04:27:52;46.90;;;27.48;;
8435;SDS011;4255;48.730;9.156;2022-12-10T04:30:18;44.67;;;27.50;;
8435;SDS011;4255;48.730;9.156;2022-12-10T04:32:43;53.17;;;28.57;;
8435;SDS011;4255;48.730;9.156;2022-12-10T04:35:09;54.80;;;29.40;;
8435;SDS011;4255;48.730;9.156;2022-12-10T04:37:35;51.77;;;29.33;;
8435;SDS011;4255;48.730;9.156;2022-12-10T04:40:01;51.67;;;28.20;;
8435;SDS011;4255;48.730;9.156;2022-12-10T04:42:27;53.55;;;31.38;;
8435;SDS011;4255;48.730;9.156;2022-12-10T04:44:53;50.63;;;27.20;;
8435;SDS011;4255;48.730;9.156;2022-12-10T04:47:18;45.77;;;25.07;;
8435;SDS011;4255;48.730;9.156;2022-12-10T04:49:44;46.17;;;27.20;;
8435;SDS011;4255;48.730;9.156;2022-12-10T04:52:11;52.53;;;28.40;;
8435;SDS011;4255;48.730;9.156;2022-12-10T04:54:37;53.22;;;27.42;;
8435;SDS011;4255;48.730;9.156;2022-12-10T04:57:03;51.10;;;26.63;;
8435;SDS011;4255;48.730;9.156;2022-12-10T04:59:29;48.60;;;28.77;;
8435;SDS011;4255;48.730;9.156;2022-12-10T05:01:54;47.43;;;27.33;;
8435;SDS011;4255;48.730;9.156;2022-12-10T05:04:20;54.53;;;28.97;;
8435;SDS011;4255;48.730;9.156;2022-12-10T05:06:47;42.53;;;25.83;;
8435;SDS011;4255;48.730;9.156;2022-12-10T05:09:14;54.88;;;26.35;;
8435;SDS011;4255;48.730;9.156;2022-12-10T05:11:40;61.47;;;29.67;;
8435;SDS011;4255;48.730;9.156;2022-12-10T05:14:06;46.95;;;26.88;;
8435;SDS011;4255;48.730;9.156;2022-12-10T05:16:35;47.78;;;27.50;;
8435;SDS011;4255;48.730;9.156;2022-12-10T05:19:00;49.00;;;29.50;;
8435;SDS011;4255;48.730;9.156;2022-12-10T05:21:27;47.40;;;26.80;;
8435;SDS011;4255;48.730;9.156;2022-12-10T05:24:14;50.72;;;27.00;;
8435;SDS011;4255;48.730;9.156;2022-12-10T05:26:41;47.58;;;26.83;;
8435;SDS011;4255;48.730;9.156;2022-12-10T05:29:07;52.07;;;29.70;;
8435;SDS011;4255;48.730;9.156;2022-12-10T05:31:33;47.42;;;26.65;;
8435;SDS011;4255;48.730;9.156;2022-12-10T05:33:59;48.73;;;27.27;;
8435;SDS011;4255;48.730;9.156;2022-12-10T05:36:26;52.70;;;28.17;;
8435;SDS011;4255;48.730;9.156;2022-12-10T05:38:53;59.55;;;30.30;;
8435;SDS011;4255;48.730;9.156;2022-12-10T05:41:22;48.33;;;26.63;;
8435;SDS011;4255;48.730;9.156;2022-12-10T05:43:49;51.95;;;27.63;;
8435;SDS011;4255;48.730;9.156;2022-12-10T05:46:16;56.05;;;28.55;;
8435;SDS011;4255;48.730;9.156;2022-12-10T05:48:50;49.08;;;26.42;;
8435;SDS011;4255;48.730;9.156;2022-12-10T05:51:17;58.00;;;28.88;;
8435;SDS011;4255;48.730;9.156;2022-12-10T05:53:44;59.53;;;30.60;;
8435;SDS011;4255;48.730;9.156;2022-12-10T05:56:12;53.13;;;28.80;;
8435;SDS011;4255;48.730;9.156;2022-12-10T05:58:40;49.42;;;27.77;;
8435;SDS011;4255;48.730;9.156;2022-12-10T06:01:08;51.95;;;29.65;;
8435;SDS011;4255;48.730;9.156;2022-12-10T06:03:39;50.70;;;26.27;;
8435;SDS011;4255;48.730;9.156;2022-12-10T06:06:05;44.22;;;26.67;;
8435;SDS011;4255;48.730;9.156;2022-12-10T06:08:32;51.42;;;30.30;;
8435;SDS011;4255;48.730;9.156;2022-12-10T06:11:05;49.13;;;28.85;;
8435;SDS011;4255;48.730;9.156;2022-12-10T06:13:36;53.70;;;26.98;;
8435;SDS011;4255;48.730;9.156;2022-12-10T06:16:06;63.13;;;30.05;;
8435;SDS011;4255;48.730;9.156;2022-12-10T06:18:33;52.08;;;28.55;;
8435;SDS011;4255;48.730;9.156;2022-12-10T06:21:02;51.97;;;28.73;;
8435;SDS011;4255;48.730;9.156;2022-12-10T06:23:33;40.15;;;23.00;;
8435;SDS011;4255;48.730;9.156;2022-12-10T06:26:03;44.72;;;27.45;;
8435;SDS011;4255;48.730;9.156;2022-12-10T06:28:33;50.55;;;26.75;;
8435;SDS011;4255;48.730;9.156;2022-12-10T06:30:59;45.07;;;27.33;;
8435;SDS011;4255;48.730;9.156;2022-12-10T06:33:25;45.70;;;29.00;;
8435;SDS011;4255;48.730;9.156;2022-12-10T06:35:51;48.45;;;28.75;;
8435;SDS011;4255;48.730;9.156;2022-12-10T06:38:17;58.17;;;26.57;;
8435;SDS011;4255;48.730;9.156;2022-12-10T06:40:42;47.87;;;26.10;;
8435;SDS011;4255;48.730;9.156;2022-12-10T06:43:09;51.97;;;26.30;;
8435;SDS011;4255;48.730;9.156;2022-12-10T06:45:38;55.75;;;30.80;;
8435;SDS011;4255;48.730;9.156;2022-12-10T06:48:05;53.08;;;30.40;;
8435;SDS011;4255;48.730;9.156;2022-12-10T06:50:31;54.30;;;29.63;;
8435;SDS011;4255;48.730;9.156;2022-12-10T06:52:56;58.93;;;31.20;;
8435;SDS011;4255;48.730;9.156;2022-12-10T06:55:22;58.87;;;28.77;;
8435;SDS011;4255;48.730;9.156;2022-12-10T06:57:50;52.57;;;25.00;;
8435;SDS011;4255;48.730;9.156;2022-12-10T07:00:17;52.50;;;27.05;;
8435;SDS011;4255;48.730;9.156;2022-12-10T07:02:42;52.80;;;28.40;;
8435;SDS011;4255;48.730;9.156;2022-12-10T07:05:08;58.97;;;30.87;;
8435;SDS011;4255;48.730;9.156;2022-12-10T07:07:34;55.30;;;28.37;;
8435;SDS011;4255;48.730;9.156;2022-12-10T07:10:00;48.80;;;26.35;;
8435;SDS011;4255;48.730;9.156;2022-12-10T07:12:26;56.33;;;28.57;;
8435;SDS011;4255;48.730;9.156;2022-12-10T07:14:52;52.10;;;27.20;;
8435;SDS011;4255;48.730;9.156;2022-12-10T07:17:17;50.47;;;28.70;;
8435;SDS011;4255;48.730;9.156;2022-12-10T07:19:43;52.27;;;28.47;;
8435;SDS011;4255;48.730;9.156;2022-12-10T07:22:09;61.67;;;32.10;;
8435;SDS011;4255;48.730;9.156;2022-12-10T07:24:34;53.80;;;30.23;;
8435;SDS011;4255;48.730;9.156;2022-12-10T07:27:00;55.33;;;29.97;;
8435;SDS011;4255;48.730;9.156;2022-12-10T07:29:29;59.42;;;31.90;;
8435;SDS011;4255;48.730;9.156;2022-12-10T07:31:54;53.00;;;28.57;;
8435;SDS011;4255;48.730;9.156;2022-12-10T07:34:20;47.97;;;26.27;;
8435;SDS011;4255;48.730;9.156;2022-12-10T07:36:46;49.40;;;28.30;;
8435;SDS011;4255;48.730;9.156;2022-12-10T07:39:12;58.47;;;31.90;;
8435;SDS011;4255;48.730;9.156;2022-12-10T07:41:42;55.72;;;29.15;;
8435;SDS011;4255;48.730;9.156;2022-12-10T07:44:17;53.97;;;29.75;;
8435;SDS011;4255;48.730;9.156;2022-12-10T07:46:46;49.55;;;29.90;;
8435;SDS011;4255;48.730;9.156;2022-12-10T07:49:12;57.20;;;29.67;;
8435;SDS011;4255;48.730;9.156;2022-12-10T07:51:38;49.23;;;28.50;;
8435;SDS011;4255;48.730;9.156;2022-12-10T07:54:04;56.77;;;28.90;;
8435;SDS011;4255;48.730;9.156;2022-12-10T07:56:29;57.30;;;30.43;;
8435;SDS011;4255;48.730;9.156;2022-12-10T07:58:55;59.40;;;29.73;;
8435;SDS011;4255;48.730;9.156;2022-12-10T08:01:25;56.97;;;31.43;;
8435;SDS011;4255;48.730;9.156;2022-12-10T08:03:51;52.72;;;29.85;;
8435;SDS011;4255;48.730;9.156;2022-12-10T08:06:21;54.53;;;30.85;;
8435;SDS011;4255;48.730;9.156;2022-12-10T08:08:47;55.67;;;28.00;;
8435;SDS011;4255;48.730;9.156;2022-12-10T08:11:14;51.30;;;26.67;;
8435;SDS011;4255;48.730;9.156;2022-12-10T08:13:41;59.60;;;29.52;;
8435;SDS011;4255;48.730;9.156;2022-12-10T08:16:11;52.72;;;29.95;;
8435;SDS011;4255;48.730;9.156;2022-12-10T08:18:39;61.28;;;28.92;;
8435;SDS011;4255;48.730;9.156;2022-12-10T08:21:05;47.67;;;25.97;;
8435;SDS011;4255;48.730;9.156;2022-12-10T08:23:32;53.38;;;28.83;;
8435;SDS011;4255;48.730;9.156;2022-12-10T08:25:58;54.40;;;27.50;;
8435;SDS011;4255;48.730;9.156;2022-12-10T08:28:27;48.83;;;27.98;;
8435;SDS011;4255;48.730;9.156;2022-12-10T08:30:52;52.37;;;28.63;;
8435;SDS011;4255;48.730;9.156;2022-12-10T08:33:18;47.43;;;26.20;;
8435;SDS011;4255;48.730;9.156;2022-12-10T08:35:44;51.63;;;25.93;;
8435;SDS011;4255;48.730;9.156;2022-12-10T08:38:09;49.53;;;28.43;;
8435;SDS011;4255;48.730;9.156;2022-12-10T08:40:38;53.60;;;26.80;;
8435;SDS011;4255;48.730;9.156;2022-12-10T08:43:05;49.75;;;25.95;;
8435;SDS011;4255;48.730;9.156;2022-12-10T08:45:31;50.40;;;28.10;;
8435;SDS011;4255;48.730;9.156;2022-12-10T08:47:56;44.33;;;25.73;;
8435;SDS011;4255;48.730;9.156;2022-12-10T08:50:22;50.07;;;29.23;;
8435;SDS011;4255;48.730;9.156;2022-12-10T08:52:47;50.83;;;26.70;;
8435;SDS011;4255;48.730;9.156;2022-12-10T08:55:13;52.87;;;28.70;;
8435;SDS011;4255;48.730;9.156;2022-12-10T08:57:38;50.13;;;27.90;;
8435;SDS011;4255;48.730;9.156;2022-12-10T09:00:04;50.87;;;28.47;;
8435;SDS011;4255;48.730;9.156;2022-12-10T09:02:31;50.13;;;26.75;;
8435;SDS011;4255;48.730;9.156;2022-12-10T09:04:56;47.47;;;27.53;;
8435;SDS011;4255;48.730;9.156;2022-12-10T09:07:22;53.60;;;28.77;;
8435;SDS011;4255;48.730;9.156;2022-12-10T09:09:47;48.23;;;26.70;;
8435;SDS011;4255;48.730;9.156;2022-12-10T09:12:13;55.70;;;27.33;;
8435;SDS011;4255;48.730;9.156;2022-12-10T09:14:39;43.30;;;25.30;;
8435;SDS011;4255;48.730;9.156;2022-12-10T09:17:06;44.83;;;27.40;;
8435;SDS011;4255;48.730;9.156;2022-12-10T09:19:32;47.53;;;26.87;;
8435;SDS011;4255;48.730;9.156;2022-12-10T09:21:59;49.28;;;25.42;;
8435;SDS011;4255;48.730;9.156;2022-12-10T09:24:25;52.27;;;29.30;;
8435;SDS011;4255;48.730;9.156;2022-12-10T09:26:50;51.33;;;27.90;;
8435;SDS011;4255;48.730;9.156;2022-12-10T09:29:16;51.20;;;27.07;;
8435;SDS011;4255;48.730;9.156;2022-12-10T09:31:41;36.77;;;22.30;;
8435;SDS011;4255;48.730;9.156;2022-12-10T09:34:07;47.63;;;25.63;;
8435;SDS011;4255;48.730;9.156;2022-12-10T09:36:33;50.95;;;27.33;;
8435;SDS011;4255;48.730;9.156;2022-12-10T09:38:59;45.70;;;25.27;;
8435;SDS011;4255;48.730;9.156;2022-12-10T09:44:11;44.63;;;26.23;;
8435;SDS011;4255;48.730;9.156;2022-12-10T09:46:51;47.03;;;25.65;;
8435;SDS011;4255;48.730;9.156;2022-12-10T09:52:13;51.50;;;27.40;;
8435;SDS011;4255;48.730;9.156;2022-12-10T09:54:43;51.55;;;27.95;;
8435;SDS011;4255;48.730;9.156;2022-12-10T09:57:48;42.60;;;25.35;;
8435;SDS011;4255;48.730;9.156;2022-12-10T10:02:52;46.13;;;24.90;;
8435;SDS011;4255;48.730;9.156;2022-12-10T10:05:23;43.45;;;24.92;;
8435;SDS011;4255;48.730;9.156;2022-12-10T10:08:05;51.08;;;26.13;;
8435;SDS011;4255;48.730;9.156;2022-12-10T10:10:39;47.85;;;27.10;;
8435;SDS011;4255;48.730;9.156;2022-12-10T10:15:32;48.03;;;26.67;;
8435;SDS011;4255;48.730;9.156;2022-12-10T10:18:02;49.60;;;25.25;;
8435;SDS011;4255;48.730;9.156;2022-12-10T10:20:37;41.60;;;25.65;;
8435;SDS011;4255;48.730;9.156;2022-12-10T10:23:03;42.37;;;24.90;;
8435;SDS011;4255;48.730;9.156;2022-12-10T10:25:29;41.57;;;24.80;;
8435;SDS011;4255;48.730;9.156;2022-12-10T10:27:55;50.47;;;26.50;;
8435;SDS011;4255;48.730;9.156;2022-12-10T10:30:21;45.80;;;25.25;;
8435;SDS011;4255;48.730;9.156;2022-12-10T10:32:52;43.25;;;25.08;;
8435;SDS011;4255;48.730;9.156;2022-12-10T10:35:30;46.05;;;25.98;;
8435;SDS011;4255;48.730;9.156;2022-12-10T10:37:59;44.28;;;24.83;;
8435;SDS011;4255;48.730;9.156;2022-12-10T10:40:44;41.00;;;23.08;;
8435;SDS011;4255;48.730;9.156;2022-12-10T10:43:15;38.97;;;23.50;;
8435;SDS011;4255;48.730;9.156;2022-12-10T10:45:50;44.00;;;26.85;;
8435;SDS011;4255;48.730;9.156;2022-12-10T10:48:23;41.33;;;24.77;;
8435;SDS011;4255;48.730;9.156;2022-12-10T10:50:55;50.58;;;26.45;;
8435;SDS011;4255;48.730;9.156;2022-12-10T10:53:45;40.25;;;22.10;;
8435;SDS011;4255;48.730;9.156;2022-12-10T10:56:24;42.22;;;24.98;;
8435;SDS011;4255;48.730;9.156;2022-12-10T11:01:45;48.22;;;26.40;;
8435;SDS011;4255;48.730;9.156;2022-12-10T11:04:12;42.97;;;22.98;;
8435;SDS011;4255;48.730;9.156;2022-12-10T11:06:41;37.28;;;23.30;;
8435;SDS011;4255;48.730;9.156;2022-12-10T11:09:13;33.78;;;21.65;;
8435;SDS011;4255;48.730;9.156;2022-12-10T11:11:44;39.25;;;22.92;;
8435;SDS011;4255;48.730;9.156;2022-12-10T11:14:22;45.45;;;26.38;;
8435;SDS011;4255;48.730;9.156;2022-12-10T11:16:48;36.58;;;17.60;;
8435;SDS011;4255;48.730;9.156;2022-12-10T11:19:21;43.17;;;23.17;;
8435;SDS011;4255;48.730;9.156;2022-12-10T11:21:48;47.25;;;23.42;;
8435;SDS011;4255;48.730;9.156;2022-12-10T11:24:16;36.70;;;22.88;;
8435;SDS011;4255;48.730;9.156;2022-12-10T11:26:57;41.38;;;22.95;;
8435;SDS011;4255;48.730;9.156;2022-12-10T11:32:07;37.85;;;22.00;;
8435;SDS011;4255;48.730;9.156;2022-12-10T11:42:50;37.53;;;23.20;;
8435;SDS011;4255;48.730;9.156;2022-12-10T11:45:23;30.27;;;20.13;;
8435;SDS011;4255;48.730;9.156;2022-12-10T11:47:57;36.97;;;21.65;;
8435;SDS011;4255;48.730;9.156;2022-12-10T11:50:48;37.03;;;21.38;;
8435;SDS011;4255;48.730;9.156;2022-12-10T11:53:32;34.58;;;22.00;;
8435;SDS011;4255;48.730;9.156;2022-12-10T12:06:30;35.45;;;20.45;;
8435;SDS011;4255;48.730;9.156;2022-12-10T12:17:15;34.72;;;21.50;;
8435;SDS011;4255;48.730;9.156;2022-12-10T12:19:46;36.13;;;22.70;;
8435;SDS011;4255;48.730;9.156;2022-12-10T12:22:44;33.28;;;19.35;;
8435;SDS011;4255;48.730;9.156;2022-12-10T12:25:22;34.30;;;19.75;;
8435;SDS011;4255;48.730;9.156;2022-12-10T12:27:57;41.70;;;22.55;;
8435;SDS011;4255;48.730;9.156;2022-12-10T12:30:35;43.35;;;23.05;;
8435;SDS011;4255;48.730;9.156;2022-12-10T12:33:20;38.42;;;21.25;;
8435;SDS011;4255;48.730;9.156;2022-12-10T12:36:14;33.92;;;19.42;;
8435;SDS011;4255;48.730;9.156;2022-12-10T12:38:55;32.40;;;21.00;;
8435;SDS011;4255;48.730;9.156;2022-12-10T12:46:47;41.47;;;22.58;;
8435;SDS011;4255;48.730;9.156;2022-12-10T12:49:20;31.20;;;20.10;;
8435;SDS011;4255;48.730;9.156;2022-12-10T12:55:00;33.55;;;19.55;;
8435;SDS011;4255;48.730;9.156;2022-12-10T13:00:12;36.67;;;19.35;;
8435;SDS011;4255;48.730;9.156;2022-12-10T13:05:36;32.47;;;19.17;;
8435;SDS011;4255;48.730;9.156;2022-12-10T13:10:45;29.85;;;18.83;;
8435;SDS011;4255;48.730;9.156;2022-12-10T13:13:31;30.38;;;19.13;;
8435;SDS011;4255;48.730;9.156;2022-12-10T13:29:57;34.13;;;20.52;;
8435;SDS011;4255;48.730;9.156;2022-12-10T13:37:37;36.17;;;20.33;;
8435;SDS011;4255;48.730;9.156;2022-12-10T13:42:58;35.58;;;20.95;;
8435;SDS011;4255;48.730;9.156;2022-12-10T13:49:02;25.63;;;16.42;;
8435;SDS011;4255;48.730;9.156;2022-12-10T13:54:20;34.20;;;20.95;;
8435;SDS011;4255;48.730;9.156;2022-12-10T14:05:22;46.05;;;22.30;;
8435;SDS011;4255;48.730;9.156;2022-12-10T14:08:11;34.20;;;20.15;;
8435;SDS011;4255;48.730;9.156;2022-12-10T14:10:42;31.70;;;17.80;;
8435;SDS011;4255;48.730;9.156;2022-12-10T14:13:10;28.20;;;16.55;;
8435;SDS011;4255;48.730;9.156;2022-12-10T14:15:38;38.03;;;19.83;;
8435;SDS011;4255;48.730;9.156;2022-12-10T14:18:11;37.20;;;17.73;;
8435;SDS011;4255;48.730;9.156;2022-12-10T14:20:39;33.17;;;19.13;;
8435;SDS011;4255;48.730;9.156;2022-12-10T14:26:18;36.33;;;20.45;;
8435;SDS011;4255;48.730;9.156;2022-12-10T14:28:50;34.85;;;19.88;;
8435;SDS011;4255;48.730;9.156;2022-12-10T14:31:33;32.35;;;18.40;;
8435;SDS011;4255;48.730;9.156;2022-12-10T14:34:05;35.17;;;20.55;;
8435;SDS011;4255;48.730;9.156;2022-12-10T14:36:33;39.20;;;21.30;;
8435;SDS011;4255;48.730;9.156;2022-12-10T14:39:04;34.28;;;19.30;;
8435;SDS011;4255;48.730;9.156;2022-12-10T14:41:45;29.45;;;16.67;;
8435;SDS011;4255;48.730;9.156;2022-12-10T14:44:14;33.13;;;18.02;;
8435;SDS011;4255;48.730;9.156;2022-12-10T14:46:42;27.45;;;13.15;;
8435;SDS011;4255;48.730;9.156;2022-12-10T14:49:08;36.67;;;20.10;;
8435;SDS011;4255;48.730;9.156;2022-12-10T14:51:46;26.52;;;15.48;;
8435;SDS011;4255;48.730;9.156;2022-12-10T14:57:08;31.52;;;18.10;;
8435;SDS011;4255;48.730;9.156;2022-12-10T15:02:43;29.40;;;18.20;;
8435;SDS011;4255;48.730;9.156;2022-12-10T15:05:21;31.95;;;19.38;;
8435;SDS011;4255;48.730;9.156;2022-12-10T15:07:59;32.88;;;18.45;;
8435;SDS011;4255;48.730;9.156;2022-12-10T15:10:32;28.45;;;17.48;;
8435;SDS011;4255;48.730;9.156;2022-12-10T15:13:01;32.45;;;17.33;;
8435;SDS011;4255;48.730;9.156;2022-12-10T15:15:33;33.88;;;21.80;;
8435;SDS011;4255;48.730;9.156;2022-12-10T15:20:37;33.65;;;20.17;;
8435;SDS011;4255;48.730;9.156;2022-12-10T15:23:17;41.63;;;21.65;;
8435;SDS011;4255;48.730;9.156;2022-12-10T15:33:51;33.40;;;18.30;;
8435;SDS011;4255;48.730;9.156;2022-12-10T15:44:23;30.67;;;18.65;;
8435;SDS011;4255;48.730;9.156;2022-12-10T15:47:09;31.88;;;17.10;;
8435;SDS011;4255;48.730;9.156;2022-12-10T15:49:48;30.42;;;18.15;;
8435;SDS011;4255;48.730;9.156;2022-12-10T15:52:18;26.27;;;16.67;;
8435;SDS011;4255;48.730;9.156;2022-12-10T15:54:46;33.78;;;17.80;;
8435;SDS011;4255;48.730;9.156;2022-12-10T15:57:20;38.70;;;18.45;;
8435;SDS011;4255;48.730;9.156;2022-12-10T16:00:17;32.08;;;18.00;;
8435;SDS011;4255;48.730;9.156;2022-12-10T16:05:29;27.40;;;15.20;;
8435;SDS011;4255;48.730;9.156;2022-12-10T16:07:58;31.38;;;18.05;;
8435;SDS011;4255;48.730;9.156;2022-12-10T16:10:26;31.75;;;17.15;;
8435;SDS011;4255;48.730;9.156;2022-12-10T16:13:03;28.00;;;15.63;;
8435;SDS011;4255;48.730;9.156;2022-12-10T16:15:35;29.35;;;17.02;;
8435;SDS011;4255;48.730;9.156;2022-12-10T16:18:09;29.88;;;17.40;;
8435;SDS011;4255;48.730;9.156;2022-12-10T16:20:36;33.00;;;17.63;;
8435;SDS011;4255;48.730;9.156;2022-12-10T16:23:02;29.05;;;16.80;;
8435;SDS011;4255;48.730;9.156;2022-12-10T16:25:29;31.02;;;16.70;;
8435;SDS011;4255;48.730;9.156;2022-12-10T16:27:56;32.80;;;17.08;;
8435;SDS011;4255;48.730;9.156;2022-12-10T16:30:24;30.13;;;17.88;;
8435;SDS011;4255;48.730;9.156;2022-12-10T16:32:54;28.80;;;15.40;;
8435;SDS011;4255;48.730;9.156;2022-12-10T16:35:20;28.43;;;17.37;;
8435;SDS011;4255;48.730;9.156;2022-12-10T16:37:46;33.60;;;17.20;;
8435;SDS011;4255;48.730;9.156;2022-12-10T16:40:19;31.15;;;16.95;;
8435;SDS011;4255;48.730;9.156;2022-12-10T16:42:49;31.85;;;18.30;;
8435;SDS011;4255;48.730;9.156;2022-12-10T16:45:19;29.73;;;16.80;;
8435;SDS011;4255;48.730;9.156;2022-12-10T16:47:54;29.70;;;16.92;;
8435;SDS011;4255;48.730;9.156;2022-12-10T16:50:20;23.75;;;14.93;;
8435;SDS011;4255;48.730;9.156;2022-12-10T16:52:46;33.90;;;17.50;;
8435;SDS011;4255;48.730;9.156;2022-12-10T16:55:16;30.38;;;16.45;;
8435;SDS011;4255;48.730;9.156;2022-12-10T16:57:45;35.33;;;18.23;;
8435;SDS011;4255;48.730;9.156;2022-12-10T17:00:13;28.15;;;16.75;;
8435;SDS011;4255;48.730;9.156;2022-12-10T17:02:40;28.90;;;17.20;;
8435;SDS011;4255;48.730;9.156;2022-12-10T17:05:17;29.30;;;17.48;;
8435;SDS011;4255;48.730;9.156;2022-12-10T17:07:48;26.80;;;16.23;;
8435;SDS011;4255;48.730;9.156;2022-12-10T17:10:13;28.33;;;15.53;;
8435;SDS011;4255;48.730;9.156;2022-12-10T17:12:40;30.63;;;17.43;;
8435;SDS011;4255;48.730;9.156;2022-12-10T17:15:10;27.45;;;16.88;;
8435;SDS011;4255;48.730;9.156;2022-12-10T17:17:37;23.50;;;16.35;;
8435;SDS011;4255;48.730;9.156;2022-12-10T17:20:24;29.30;;;16.20;;
8435;SDS011;4255;48.730;9.156;2022-12-10T17:22:50;28.52;;;18.55;;
8435;SDS011;4255;48.730;9.156;2022-12-10T17:25:16;27.83;;;15.33;;